Chattanooga (CHA/KCHA)

Map

Destinations

Information

Location
Chattanooga, TN
Local Time
21:51 / 9:51 pm
GMT Time
01:51 / 1:51 am
Gates
2
No FAA reported delays
METAR KCHA 270053Z 00000KT 10SM SCT060 SCT250 26/14 A3008 RMK AO2 SLP179 T02560144 $
TAF KCHA 262320Z 2700/2724 29005KT P6SM SCT050 SCT150 FM270300 00000KT P6SM SCT150 FM271000 36003KT P6SM OVC100 FM271800 36006KT P6SM SCT060